Time;durP1;ratioP1;P1;durP2;ratioP2;P2;SDS_P1;SDS_P2;PMS_P1;PMS_P2;Temp;Humidity;BMP_temperature;BMP_pressure;BME280_temperature;BME280_humidity;BME280_pressure;Samples;Min_cycle;Max_cycle;Signal;HPM_P1;HPM_P2
2023/04/26 00:01:17;;;;;;;;;;;21.00;99.90;;;;;;5077321;28;19958;-66
2023/04/26 00:03:44;;;;;;;;;;;21.00;99.90;;;;;;5075823;28;20064;-67
2023/04/26 00:06:13;;;;;;;;;;;21.00;99.90;;;;;;5076779;28;19916;-67
2023/04/26 00:08:42;;;;;;;;;;;21.00;99.90;;;;;;5076497;28;19952;-65
2023/04/26 00:11:09;;;;;;;;;;;21.00;99.90;;;;;;5075613;28;19955;-66
2023/04/26 00:13:37;;;;;;;;;;;21.20;99.90;;;;;;5085811;28;19912;-67
2023/04/26 00:16:04;;;;;;;;;;;21.20;99.90;;;;;;5074106;28;19913;-66
2023/04/26 00:18:31;;;;;;;;;;;21.30;99.90;;;;;;5076340;28;19920;-65
2023/04/26 00:20:58;;;;;;;;;;;21.40;99.90;;;;;;5056663;28;19919;-66
2023/04/26 00:23:25;;;;;;;;;;;21.50;99.90;;;;;;5076006;28;19912;-69
2023/04/26 00:25:51;;;;;;;;;;;21.70;99.90;;;;;;5074164;28;19928;-69
2023/04/26 00:28:18;;;;;;;;;;;21.90;99.90;;;;;;5074910;28;20349;-68
2023/04/26 00:30:47;;;;;;;;;;;21.90;99.90;;;;;;5077517;28;20011;-68
2023/04/26 00:33:14;;;;;;;;;;;22.10;99.90;;;;;;5074738;28;20377;-69
2023/04/26 00:35:41;;;;;;;;;;;22.20;99.90;;;;;;5058189;28;20003;-69
2023/04/26 00:38:07;;;;;;;;;;;22.20;99.90;;;;;;5074143;28;20006;-67
2023/04/26 00:40:34;;;;;;;;;;;22.10;99.90;;;;;;5076210;28;19920;-70
2023/04/26 00:43:02;;;;;;;;;;;22.10;99.90;;;;;;5074449;28;19912;-68
2023/04/26 00:45:28;;;;;;;;;;;22.00;99.90;;;;;;5074926;28;19920;-68
2023/04/26 00:47:56;;;;;;;;;;;22.00;99.90;;;;;;5075575;28;19915;-67
2023/04/26 00:50:26;;;;;;;;;;;22.10;99.90;;;;;;5073580;28;20233;-66
2023/04/26 00:52:52;;;;;;;;;;;22.20;99.90;;;;;;5059383;28;19912;-68
2023/04/26 00:55:21;;;;;;;;;;;22.30;99.90;;;;;;5074757;28;19908;-68
2023/04/26 00:57:47;;;;;;;;;;;22.50;99.90;;;;;;5076784;28;19908;-66
2023/04/26 01:00:15;;;;;;;;;;;22.70;99.90;;;;;;5072681;28;19954;-69
2023/04/26 01:02:42;;;;;;;;;;;22.90;99.90;;;;;;5078269;28;20700;-68
2023/04/26 01:05:09;;;;;;;;;;;23.10;99.90;;;;;;5074124;28;19955;-67
2023/04/26 01:07:36;;;;;;;;;;;23.30;99.90;;;;;;5076455;28;19994;-68
2023/04/26 01:10:08;;;;;;;;;;;23.40;99.90;;;;;;5074818;28;19912;-68
2023/04/26 01:12:35;;;;;;;;;;;23.50;99.90;;;;;;5077531;28;19919;-67
2023/04/26 01:15:03;;;;;;;;;;;23.60;99.90;;;;;;5095008;28;19961;-66
2023/04/26 01:17:30;;;;;;;;;;;23.80;99.90;;;;;;5090629;28;20030;-68
2023/04/26 01:19:57;;;;;;;;;;;23.80;99.90;;;;;;5087551;28;19912;-69
2023/04/26 01:22:23;;;;;;;;;;;23.80;99.90;;;;;;5093777;28;19908;-66
2023/04/26 01:24:51;;;;;;;;;;;23.80;99.90;;;;;;5076409;28;20329;-68
2023/04/26 01:27:17;;;;;;;;;;;23.40;99.90;;;;;;5071987;28;19983;-67
2023/04/26 01:29:45;;;;;;;;;;;23.40;99.90;;;;;;5075390;28;20189;-67
2023/04/26 01:32:11;;;;;;;;;;;23.40;99.90;;;;;;5073601;28;19912;-67
2023/04/26 01:34:38;;;;;;;;;;;23.50;99.90;;;;;;5074085;28;19918;-66
2023/04/26 01:37:06;;;;;;;;;;;23.40;99.90;;;;;;5074183;28;19915;-68
2023/04/26 01:39:33;;;;;;;;;;;23.30;99.90;;;;;;5073859;28;20383;-65
2023/04/26 01:42:01;;;;;;;;;;;23.10;99.90;;;;;;5076447;28;20010;-67
2023/04/26 01:44:28;;;;;;;;;;;23.00;99.90;;;;;;5071889;28;19927;-68
2023/04/26 01:46:54;;;;;;;;;;;22.80;99.90;;;;;;5075238;28;20365;-69
2023/04/26 01:49:21;;;;;;;;;;;22.60;99.90;;;;;;5072445;28;19912;-70
2023/04/26 01:51:48;;;;;;;;;;;22.40;99.90;;;;;;5075685;28;19939;-70
2023/04/26 01:54:15;;;;;;;;;;;22.30;99.90;;;;;;5075540;28;20391;-68
2023/04/26 01:56:41;;;;;;;;;;;22.30;99.90;;;;;;5073517;28;19909;-71
2023/04/26 01:59:08;;;;;;;;;;;22.20;99.90;;;;;;5075862;28;19908;-68
2023/04/26 02:01:35;;;;;;;;;;;22.10;99.90;;;;;;5071369;28;19916;-67
2023/04/26 02:04:01;;;;;;;;;;;22.00;99.90;;;;;;5075581;28;19923;-69
2023/04/26 02:06:28;;;;;;;;;;;22.00;99.90;;;;;;5054559;28;20422;-67
2023/04/26 02:08:55;;;;;;;;;;;22.00;99.90;;;;;;5073825;28;19920;-65
2023/04/26 02:11:23;;;;;;;;;;;21.90;99.90;;;;;;5074506;28;20384;-68
2023/04/26 02:13:50;;;;;;;;;;;22.10;99.90;;;;;;5081478;28;19912;-67
2023/04/26 02:16:16;;;;;;;;;;;22.10;99.90;;;;;;5062123;28;20260;-68
2023/04/26 02:18:43;;;;;;;;;;;21.90;99.90;;;;;;5076124;28;19908;-67
2023/04/26 02:21:13;;;;;;;;;;;21.90;99.90;;;;;;5080159;28;20006;-68
2023/04/26 02:23:40;;;;;;;;;;;22.00;99.90;;;;;;5077032;28;19987;-69
2023/04/26 02:26:06;;;;;;;;;;;22.10;99.90;;;;;;5079843;28;19963;-68
2023/04/26 02:28:33;;;;;;;;;;;22.10;99.90;;;;;;5080169;28;19908;-65
2023/04/26 02:31:01;;;;;;;;;;;22.30;99.90;;;;;;5076706;28;20288;-66
2023/04/26 02:33:28;;;;;;;;;;;22.40;99.90;;;;;;5079355;28;20280;-68
2023/04/26 02:35:54;;;;;;;;;;;22.50;99.90;;;;;;5078067;28;19919;-68
2023/04/26 02:38:21;;;;;;;;;;;22.70;99.90;;;;;;5080637;28;19915;-69
2023/04/26 02:40:48;;;;;;;;;;;22.90;99.90;;;;;;5078017;28;19919;-63
2023/04/26 02:43:14;;;;;;;;;;;23.30;99.90;;;;;;5080554;28;20425;-68
2023/04/26 02:45:42;;;;;;;;;;;23.30;99.90;;;;;;5077049;28;19920;-66
2023/04/26 02:48:08;;;;;;;;;;;23.50;99.90;;;;;;5080048;28;19912;-66
2023/04/26 02:50:35;;;;;;;;;;;24.50;99.90;;;;;;5081566;28;20254;-69
2023/04/26 02:53:02;;;;;;;;;;;25.40;99.90;;;;;;5078550;28;20003;-71
2023/04/26 02:55:29;;;;;;;;;;;26.30;99.80;;;;;;5080253;28;20357;-70
2023/04/26 02:57:55;;;;;;;;;;;26.80;98.30;;;;;;5077759;28;19912;-69
2023/04/26 03:00:23;;;;;;;;;;;26.90;97.90;;;;;;5079277;28;19916;-69
2023/04/26 03:02:50;;;;;;;;;;;26.80;97.30;;;;;;5077855;28;20280;-68
2023/04/26 03:05:17;;;;;;;;;;;26.70;98.00;;;;;;5081928;28;20015;-67
2023/04/26 03:07:43;;;;;;;;;;;26.70;98.10;;;;;;5061806;28;19912;-69
2023/04/26 03:10:10;;;;;;;;;;;26.50;97.40;;;;;;5080056;28;19912;-67
2023/04/26 03:12:37;;;;;;;;;;;26.70;98.70;;;;;;5080637;28;20962;-70
2023/04/26 03:15:04;;;;;;;;;;;27.70;96.20;;;;;;5077197;28;19912;-69
2023/04/26 03:17:30;;;;;;;;;;;28.00;96.00;;;;;;5079972;28;20008;-65
2023/04/26 03:19:57;;;;;;;;;;;28.80;95.70;;;;;;5077269;28;20027;-67
2023/04/26 03:22:24;;;;;;;;;;;29.40;94.70;;;;;;5080077;28;19958;-66
2023/04/26 03:24:51;;;;;;;;;;;29.80;92.00;;;;;;5076629;28;19928;-68
2023/04/26 03:27:17;;;;;;;;;;;28.90;91.90;;;;;;5080775;28;19912;-68
2023/04/26 03:29:44;;;;;;;;;;;27.40;93.90;;;;;;5081085;28;19908;-68
2023/04/26 03:32:10;;;;;;;;;;;26.30;95.10;;;;;;5060885;28;20715;-69
2023/04/26 03:34:37;;;;;;;;;;;25.40;96.50;;;;;;5080504;28;19950;-66
2023/04/26 03:37:04;;;;;;;;;;;24.60;98.00;;;;;;5057451;28;20031;-66
2023/04/26 03:39:31;;;;;;;;;;;24.10;99.20;;;;;;5080377;28;19916;-65
2023/04/26 03:41:57;;;;;;;;;;;23.70;99.60;;;;;;5076495;28;19981;-65
2023/04/26 03:44:24;;;;;;;;;;;23.30;99.90;;;;;;5061873;28;20413;-67
2023/04/26 03:46:51;;;;;;;;;;;23.30;99.90;;;;;;5078623;28;20006;-67
2023/04/26 03:49:17;;;;;;;;;;;23.10;99.90;;;;;;5079376;28;19984;-65
2023/04/26 03:51:44;;;;;;;;;;;23.10;99.90;;;;;;5062314;28;19912;-66
2023/04/26 03:54:10;;;;;;;;;;;23.10;99.90;;;;;;5076765;28;19960;-66
2023/04/26 03:56:38;;;;;;;;;;;23.10;99.90;;;;;;5080076;28;20639;-65
2023/04/26 03:59:05;;;;;;;;;;;23.00;99.90;;;;;;5075642;28;19912;-67
2023/04/26 04:01:32;;;;;;;;;;;23.00;99.90;;;;;;5080081;28;19919;-65
2023/04/26 04:03:59;;;;;;;;;;;22.90;99.90;;;;;;5076599;28;20365;-66
2023/04/26 04:06:26;;;;;;;;;;;22.90;99.90;;;;;;5080094;28;19909;-66
2023/04/26 04:08:52;;;;;;;;;;;22.90;99.90;;;;;;5078150;28;19912;-69
2023/04/26 04:11:19;;;;;;;;;;;22.70;99.90;;;;;;5078644;28;20373;-68
2023/04/26 04:13:46;;;;;;;;;;;22.60;99.90;;;;;;5079683;28;19951;-70
2023/04/26 04:16:12;;;;;;;;;;;22.60;99.90;;;;;;5076486;28;19913;-67
2023/04/26 04:18:39;;;;;;;;;;;22.60;99.90;;;;;;5079439;28;19912;-66
2023/04/26 04:21:06;;;;;;;;;;;22.60;99.90;;;;;;5075414;28;19912;-67
2023/04/26 04:23:33;;;;;;;;;;;22.70;99.90;;;;;;5079865;28;20391;-68
2023/04/26 04:25:59;;;;;;;;;;;22.80;99.90;;;;;;5077214;28;19955;-66
2023/04/26 04:28:26;;;;;;;;;;;22.90;99.90;;;;;;5079509;28;19958;-66
2023/04/26 04:30:52;;;;;;;;;;;23.00;99.90;;;;;;5076620;28;20269;-68
2023/04/26 04:33:19;;;;;;;;;;;23.20;99.90;;;;;;5077763;28;19998;-66
2023/04/26 04:35:46;;;;;;;;;;;23.10;99.90;;;;;;5079140;28;19916;-68
2023/04/26 04:38:13;;;;;;;;;;;23.20;99.90;;;;;;5077307;28;19914;-65
2023/04/26 04:40:40;;;;;;;;;;;23.20;99.60;;;;;;5079851;28;19920;-66
2023/04/26 04:43:06;;;;;;;;;;;23.10;99.90;;;;;;5063054;28;19908;-67
2023/04/26 04:45:34;;;;;;;;;;;22.90;99.90;;;;;;5072524;28;19916;-66
2023/04/26 04:48:00;;;;;;;;;;;22.80;99.90;;;;;;5075816;28;19927;-68
2023/04/26 04:50:28;;;;;;;;;;;22.80;99.90;;;;;;5078395;28;19908;-66
2023/04/26 04:52:54;;;;;;;;;;;23.10;99.90;;;;;;5078609;28;20272;-66
2023/04/26 04:55:21;;;;;;;;;;;23.30;99.90;;;;;;5076133;28;19908;-64
2023/04/26 04:57:48;;;;;;;;;;;23.60;99.90;;;;;;5078265;28;20245;-68
2023/04/26 05:00:15;;;;;;;;;;;23.90;99.90;;;;;;5074356;28;19923;-66
2023/04/26 05:02:41;;;;;;;;;;;24.30;99.90;;;;;;5078830;28;19915;-67
2023/04/26 05:05:09;;;;;;;;;;;24.80;99.90;;;;;;5075430;28;19920;-65
2023/04/26 05:07:36;;;;;;;;;;;25.10;99.70;;;;;;5077761;28;19909;-65
2023/04/26 05:10:03;;;;;;;;;;;25.20;99.40;;;;;;5077187;28;19939;-67
2023/04/26 05:12:30;;;;;;;;;;;25.50;98.90;;;;;;5078776;28;19908;-67
2023/04/26 05:14:56;;;;;;;;;;;25.40;98.50;;;;;;5069671;28;19962;-67
2023/04/26 05:17:23;;;;;;;;;;;25.40;98.50;;;;;;5076278;28;19949;-66
2023/04/26 05:19:50;;;;;;;;;;;25.30;98.40;;;;;;5077680;28;20003;-67
2023/04/26 05:22:21;;;;;;;;;;;25.40;98.70;;;;;;5073077;28;19916;-68
2023/04/26 05:24:48;;;;;;;;;;;25.80;98.20;;;;;;5064736;28;20383;-67
2023/04/26 05:27:14;;;;;;;;;;;26.20;98.00;;;;;;5073211;28;19922;-67
2023/04/26 05:29:41;;;;;;;;;;;26.40;97.50;;;;;;5087361;28;20002;-67
2023/04/26 05:32:08;;;;;;;;;;;26.60;97.30;;;;;;5071240;28;19909;-68
2023/04/26 05:34:35;;;;;;;;;;;26.50;97.10;;;;;;5058451;28;19935;-68
2023/04/26 05:37:02;;;;;;;;;;;26.10;97.40;;;;;;5074538;28;19999;-67
2023/04/26 05:39:29;;;;;;;;;;;25.80;97.40;;;;;;5074494;28;19920;-68
2023/04/26 05:41:56;;;;;;;;;;;25.20;98.70;;;;;;5077844;28;20019;-68
2023/04/26 05:44:22;;;;;;;;;;;25.10;98.80;;;;;;5074713;28;20276;-69
2023/04/26 05:46:49;;;;;;;;;;;25.10;98.90;;;;;;5079599;28;19916;-69
2023/04/26 05:49:16;;;;;;;;;;;25.10;98.50;;;;;;5081027;28;19915;-69
2023/04/26 05:51:42;;;;;;;;;;;25.50;99.50;;;;;;5084578;28;19938;-69
2023/04/26 05:54:09;;;;;;;;;;;26.90;97.60;;;;;;5080580;28;19919;-66
2023/04/26 05:56:36;;;;;;;;;;;28.30;94.80;;;;;;5064764;28;20135;-65
2023/04/26 05:59:02;;;;;;;;;;;29.00;94.40;;;;;;5083520;28;19985;-69
2023/04/26 06:01:29;;;;;;;;;;;29.90;93.30;;;;;;5080269;28;19939;-70
2023/04/26 06:03:56;;;;;;;;;;;30.20;91.40;;;;;;5083848;28;19912;-65
2023/04/26 06:06:23;;;;;;;;;;;29.20;92.00;;;;;;5081175;28;20030;-69
2023/04/26 06:08:49;;;;;;;;;;;28.90;93.10;;;;;;5082446;28;19912;-69
2023/04/26 06:11:16;;;;;;;;;;;29.10;92.90;;;;;;5081241;28;19920;-67
2023/04/26 06:13:42;;;;;;;;;;;29.20;92.40;;;;;;5084027;28;19909;-69
2023/04/26 06:16:09;;;;;;;;;;;30.00;91.80;;;;;;5083902;28;20364;-66
2023/04/26 06:18:36;;;;;;;;;;;30.30;90.70;;;;;;5063005;28;19923;-67
2023/04/26 06:21:02;;;;;;;;;;;29.80;90.90;;;;;;5065222;28;20285;-68
2023/04/26 06:23:29;;;;;;;;;;;28.90;91.60;;;;;;5080502;28;19908;-71
2023/04/26 06:25:56;;;;;;;;;;;27.90;92.20;;;;;;5083308;28;20015;-67
2023/04/26 06:28:23;;;;;;;;;;;27.00;93.40;;;;;;5080464;28;19915;-67
2023/04/26 06:30:49;;;;;;;;;;;26.20;94.60;;;;;;5083553;28;19916;-68
2023/04/26 06:33:16;;;;;;;;;;;25.60;95.60;;;;;;5082707;28;20486;-69
2023/04/26 06:35:42;;;;;;;;;;;25.40;96.20;;;;;;5083264;28;19918;-67
2023/04/26 06:38:11;;;;;;;;;;;25.40;96.90;;;;;;5083709;28;19995;-65
2023/04/26 06:40:38;;;;;;;;;;;25.60;96.60;;;;;;5079919;28;20123;-66
2023/04/26 06:43:05;;;;;;;;;;;25.70;96.00;;;;;;5083886;28;19912;-66
2023/04/26 06:45:31;;;;;;;;;;;25.50;95.80;;;;;;5078047;28;19973;-65
2023/04/26 06:47:59;;;;;;;;;;;25.00;96.50;;;;;;5082485;28;19928;-67
2023/04/26 06:50:26;;;;;;;;;;;24.50;97.40;;;;;;5078860;28;19912;-67
2023/04/26 06:52:52;;;;;;;;;;;23.90;98.20;;;;;;5082893;28;20020;-68
2023/04/26 06:55:19;;;;;;;;;;;23.30;99.20;;;;;;5081270;28;19934;-67
2023/04/26 06:57:46;;;;;;;;;;;23.00;99.90;;;;;;5080339;28;20353;-68
2023/04/26 07:00:13;;;;;;;;;;;22.50;99.90;;;;;;5079770;28;19909;-67
2023/04/26 07:02:40;;;;;;;;;;;22.20;99.90;;;;;;5059018;28;20708;-68
2023/04/26 07:05:06;;;;;;;;;;;21.90;99.90;;;;;;5079252;28;19951;-67
2023/04/26 07:07:33;;;;;;;;;;;21.80;99.90;;;;;;5078025;28;19913;-68
2023/04/26 07:10:00;;;;;;;;;;;21.60;99.90;;;;;;5079705;28;19924;-65
2023/04/26 07:12:26;;;;;;;;;;;21.40;99.90;;;;;;5078210;28;19912;-68
2023/04/26 07:14:53;;;;;;;;;;;21.20;99.90;;;;;;5078813;28;19916;-68
2023/04/26 07:17:21;;;;;;;;;;;21.10;99.90;;;;;;5080513;28;19915;-67
2023/04/26 07:19:47;;;;;;;;;;;21.00;99.90;;;;;;5070540;28;20057;-66
2023/04/26 07:22:14;;;;;;;;;;;20.80;99.90;;;;;;5079782;28;19913;-69
2023/04/26 07:24:41;;;;;;;;;;;20.80;99.90;;;;;;5073854;28;19916;-67
2023/04/26 07:27:07;;;;;;;;;;;20.60;99.90;;;;;;5076146;28;20399;-66
2023/04/26 07:29:34;;;;;;;;;;;20.50;99.90;;;;;;5076767;28;19923;-67
2023/04/26 07:32:00;;;;;;;;;;;20.40;99.90;;;;;;5079841;28;19908;-67
2023/04/26 07:34:27;;;;;;;;;;;20.40;99.90;;;;;;5086618;28;19915;-67
2023/04/26 07:36:55;;;;;;;;;;;20.30;99.90;;;;;;5079038;28;19915;-67
2023/04/26 07:39:21;;;;;;;;;;;20.20;99.90;;;;;;5080198;28;19919;-66
2023/04/26 07:41:48;;;;;;;;;;;20.10;99.90;;;;;;5077444;28;19970;-66
2023/04/26 07:44:15;;;;;;;;;;;20.00;99.90;;;;;;5079034;28;19918;-66
2023/04/26 07:46:41;;;;;;;;;;;20.00;99.90;;;;;;5063089;28;20004;-67
2023/04/26 07:49:08;;;;;;;;;;;19.90;99.90;;;;;;5078256;28;19966;-66
2023/04/26 07:51:36;;;;;;;;;;;19.90;99.90;;;;;;5077193;28;19940;-66
2023/04/26 07:54:02;;;;;;;;;;;19.90;99.90;;;;;;5079925;28;20270;-68
2023/04/26 07:56:29;;;;;;;;;;;19.90;99.90;;;;;;5078998;28;20019;-68
2023/04/26 07:58:55;;;;;;;;;;;19.80;99.90;;;;;;5079118;28;19939;-67
2023/04/26 08:01:22;;;;;;;;;;;19.80;99.90;;;;;;5080180;28;20003;-63
2023/04/26 08:03:49;;;;;;;;;;;19.70;99.90;;;;;;5074363;28;20392;-67
2023/04/26 08:06:16;;;;;;;;;;;19.70;99.90;;;;;;5078567;28;19927;-67
2023/04/26 08:08:47;;;;;;;;;;;19.70;99.90;;;;;;5076498;28;20335;-68
2023/04/26 08:11:14;;;;;;;;;;;19.70;99.90;;;;;;5078796;28;20379;-68
2023/04/26 08:13:42;;;;;;;;;;;19.70;99.90;;;;;;5076647;28;19962;-68
2023/04/26 08:16:09;;;;;;;;;;;19.70;99.90;;;;;;5079486;28;19919;-68
2023/04/26 08:18:36;;;;;;;;;;;19.60;99.90;;;;;;5076483;28;19923;-68
2023/04/26 08:21:02;;;;;;;;;;;19.60;99.90;;;;;;5081210;28;20372;-68
2023/04/26 08:23:33;;;;;;;;;;;19.60;99.90;;;;;;5079568;28;19908;-69
2023/04/26 08:26:00;;;;;;;;;;;19.60;99.90;;;;;;5078836;28;19920;-69
2023/04/26 08:28:26;;;;;;;;;;;19.50;99.90;;;;;;5079001;28;19915;-69
2023/04/26 08:30:54;;;;;;;;;;;19.50;99.90;;;;;;5075256;28;20515;-67
2023/04/26 08:33:20;;;;;;;;;;;19.50;99.90;;;;;;5078877;28;20063;-68
2023/04/26 08:35:47;;;;;;;;;;;19.50;99.90;;;;;;5076123;28;19995;-67
2023/04/26 08:38:13;;;;;;;;;;;19.60;99.90;;;;;;5060262;28;20700;-69
2023/04/26 08:40:41;;;;;;;;;;;19.70;99.90;;;;;;5074886;28;20014;-67
2023/04/26 08:43:08;;;;;;;;;;;19.70;99.90;;;;;;5079411;28;19962;-69
2023/04/26 08:45:39;;;;;;;;;;;19.70;99.90;;;;;;5078064;28;19963;-68
2023/04/26 08:48:12;;;;;;;;;;;19.70;99.90;;;;;;5079332;28;19947;-66
2023/04/26 08:50:39;;;;;;;;;;;19.70;99.90;;;;;;5076911;28;19951;-68
2023/04/26 08:53:07;;;;;;;;;;;19.70;99.90;;;;;;5078605;28;19908;-68
2023/04/26 08:55:35;;;;;;;;;;;19.70;99.90;;;;;;5079343;28;19912;-66
2023/04/26 08:58:02;;;;;;;;;;;19.70;99.90;;;;;;5076208;28;19999;-67
2023/04/26 09:00:29;;;;;;;;;;;19.70;99.90;;;;;;5078993;28;20069;-66
2023/04/26 09:02:56;;;;;;;;;;;19.80;99.90;;;;;;5074716;28;19951;-67
2023/04/26 09:05:25;;;;;;;;;;;19.80;99.90;;;;;;5078625;28;19920;-65
2023/04/26 09:07:55;;;;;;;;;;;19.90;99.90;;;;;;5071940;28;20012;-68
2023/04/26 09:10:22;;;;;;;;;;;19.90;99.90;;;;;;5078081;28;19916;-67
2023/04/26 09:12:52;;;;;;;;;;;20.00;99.90;;;;;;5075571;28;19934;-68
2023/04/26 09:15:20;;;;;;;;;;;20.00;99.90;;;;;;5077579;28;19920;-66
2023/04/26 09:17:48;;;;;;;;;;;20.10;99.90;;;;;;5075064;28;19908;-67
2023/04/26 09:20:18;;;;;;;;;;;20.10;99.90;;;;;;5078769;28;20327;-68
2023/04/26 09:22:45;;;;;;;;;;;20.10;99.90;;;;;;5088032;28;19974;-67
2023/04/26 09:25:15;;;;;;;;;;;20.10;99.90;;;;;;5077518;28;19920;-67
2023/04/26 09:27:43;;;;;;;;;;;20.10;99.90;;;;;;5076514;28;19919;-66
2023/04/26 09:30:10;;;;;;;;;;;20.10;99.90;;;;;;5069926;28;19926;-67
2023/04/26 09:32:45;;;;;;;;;;;20.00;99.90;;;;;;5077435;28;20607;-66
2023/04/26 09:35:26;;;;;;;;;;;20.10;99.90;;;;;;5076407;28;19912;-67
2023/04/26 09:37:57;;;;;;;;;;;20.00;99.90;;;;;;5074270;28;20761;-68
2023/04/26 09:40:25;;;;;;;;;;;20.00;99.90;;;;;;5078937;28;19924;-70
2023/04/26 09:43:00;;;;;;;;;;;19.90;99.90;;;;;;5074652;28;20308;-68
2023/04/26 09:45:27;;;;;;;;;;;19.90;99.90;;;;;;5077104;28;19920;-67
2023/04/26 09:47:55;;;;;;;;;;;19.90;99.90;;;;;;5074086;28;19908;-69
2023/04/26 09:50:28;;;;;;;;;;;19.80;99.90;;;;;;5077967;28;19923;-66
2023/04/26 09:52:55;;;;;;;;;;;19.80;99.90;;;;;;5078183;28;19904;-66
2023/04/26 09:55:27;;;;;;;;;;;19.80;99.90;;;;;;5074287;28;20218;-67
2023/04/26 09:57:54;;;;;;;;;;;19.80;99.90;;;;;;5077282;28;19966;-67
2023/04/26 10:00:21;;;;;;;;;;;19.80;99.90;;;;;;5074646;28;20750;-69
2023/04/26 10:02:48;;;;;;;;;;;19.70;99.90;;;;;;5078111;28;20257;-66
2023/04/26 10:05:14;;;;;;;;;;;19.60;99.90;;;;;;5074154;28;19930;-67
2023/04/26 10:07:41;;;;;;;;;;;19.70;99.90;;;;;;5075326;28;19908;-67
2023/04/26 10:10:08;;;;;;;;;;;19.60;99.90;;;;;;5074225;28;19912;-68
2023/04/26 10:12:35;;;;;;;;;;;19.60;99.90;;;;;;5077738;28;19908;-68
2023/04/26 10:15:03;;;;;;;;;;;19.60;99.90;;;;;;5077532;28;20393;-66
2023/04/26 10:17:31;;;;;;;;;;;19.70;99.90;;;;;;5075347;28;19912;-69
2023/04/26 10:19:58;;;;;;;;;;;19.60;99.90;;;;;;5077236;28;20276;-68
2023/04/26 10:22:27;;;;;;;;;;;19.60;99.90;;;;;;5089135;28;19960;-70
2023/04/26 10:24:55;;;;;;;;;;;19.70;99.90;;;;;;5078428;28;20015;-70
2023/04/26 10:27:47;;;;;;;;;;;19.60;99.90;;;;;;5073636;28;19912;-68
2023/04/26 10:30:15;;;;;;;;;;;19.60;99.90;;;;;;5057051;28;19941;-70
2023/04/26 10:32:48;;;;;;;;;;;19.50;99.90;;;;;;5076285;28;19965;-71
2023/04/26 10:35:16;;;;;;;;;;;19.50;99.90;;;;;;5078568;28;20003;-70
2023/04/26 10:38:02;;;;;;;;;;;19.60;99.90;;;;;;5077653;28;20714;-69
2023/04/26 10:40:31;;;;;;;;;;;19.60;99.90;;;;;;5074966;28;20153;-68
2023/04/26 10:43:18;;;;;;;;;;;19.50;99.90;;;;;;5078953;28;19935;-69
2023/04/26 10:45:45;;;;;;;;;;;19.50;99.90;;;;;;5057404;28;19978;-67
2023/04/26 10:48:23;;;;;;;;;;;19.60;99.90;;;;;;5065760;28;19908;-67
2023/04/26 10:51:01;;;;;;;;;;;19.60;99.90;;;;;;5077711;28;19920;-67
2023/04/26 10:53:29;;;;;;;;;;;19.70;99.90;;;;;;5078347;28;19977;-67
2023/04/26 10:55:55;;;;;;;;;;;19.70;99.90;;;;;;5078956;28;19954;-71
2023/04/26 10:58:28;;;;;;;;;;;19.70;99.90;;;;;;5078902;28;19970;-68
2023/04/26 11:01:19;;;;;;;;;;;19.80;99.90;;;;;;5078667;28;19908;-69
2023/04/26 11:04:05;;;;;;;;;;;19.70;99.90;;;;;;5072009;28;19963;-69
2023/04/26 11:06:50;;;;;;;;;;;19.70;99.90;;;;;;5077709;28;19920;-67
2023/04/26 11:09:35;;;;;;;;;;;19.80;99.90;;;;;;5078842;28;19916;-69
2023/04/26 11:12:12;;;;;;;;;;;19.70;99.90;;;;;;5079749;28;19952;-68
2023/04/26 11:14:42;;;;;;;;;;;19.70;99.90;;;;;;5074745;28;19912;-66
2023/04/26 11:17:09;;;;;;;;;;;19.60;99.90;;;;;;5079513;28;19931;-68
2023/04/26 11:19:36;;;;;;;;;;;19.60;99.90;;;;;;5075575;28;19908;-70
2023/04/26 11:22:05;;;;;;;;;;;19.60;99.90;;;;;;5079795;28;19912;-68
2023/04/26 11:24:35;;;;;;;;;;;19.50;99.90;;;;;;5077883;28;20380;-69
2023/04/26 11:27:07;;;;;;;;;;;19.50;99.90;;;;;;5079040;28;19912;-71
2023/04/26 11:29:34;;;;;;;;;;;19.40;99.90;;;;;;5077249;28;20625;-70
2023/04/26 11:32:01;;;;;;;;;;;19.40;99.90;;;;;;5077979;28;20003;-70
2023/04/26 11:34:34;;;;;;;;;;;19.40;99.90;;;;;;5079534;28;19908;-68
2023/04/26 11:37:04;;;;;;;;;;;19.40;99.90;;;;;;5078167;28;19947;-68
2023/04/26 11:39:34;;;;;;;;;;;19.40;99.90;;;;;;5078585;28;19920;-68
2023/04/26 11:42:05;;;;;;;;;;;19.40;99.90;;;;;;5077097;28;20046;-68
2023/04/26 11:44:32;;;;;;;;;;;19.40;99.90;;;;;;5078357;28;19916;-66
2023/04/26 11:47:05;;;;;;;;;;;19.40;99.90;;;;;;5076761;28;19962;-67
2023/04/26 11:49:32;;;;;;;;;;;19.40;99.90;;;;;;5078531;28;19908;-66
2023/04/26 11:51:59;;;;;;;;;;;19.50;99.90;;;;;;5076812;28;20061;-68
2023/04/26 11:54:30;;;;;;;;;;;19.40;99.90;;;;;;5060303;28;20506;-68
2023/04/26 11:56:57;;;;;;;;;;;19.40;99.90;;;;;;5076112;28;19992;-70
2023/04/26 11:59:24;;;;;;;;;;;19.30;99.90;;;;;;5078026;28;19912;-70
2023/04/26 12:01:52;;;;;;;;;;;19.30;99.90;;;;;;5076082;28;19915;-68
2023/04/26 12:04:18;;;;;;;;;;;19.30;99.90;;;;;;5078083;28;19919;-66
2023/04/26 12:06:46;;;;;;;;;;;19.20;99.90;;;;;;5075596;28;19912;-70
2023/04/26 12:09:12;;;;;;;;;;;19.20;99.90;;;;;;5078170;28;19912;-68
2023/04/26 12:11:40;;;;;;;;;;;19.20;99.90;;;;;;5077386;28;19918;-70
2023/04/26 12:14:08;;;;;;;;;;;19.10;99.90;;;;;;5077663;28;19908;-67
2023/04/26 12:16:35;;;;;;;;;;;19.00;99.90;;;;;;5077848;28;19908;-67
2023/04/26 12:19:04;;;;;;;;;;;19.00;99.90;;;;;;5075764;28;19938;-68
2023/04/26 12:21:39;;;;;;;;;;;18.90;99.90;;;;;;5077796;28;19908;-68
2023/04/26 12:24:06;;;;;;;;;;;19.00;99.90;;;;;;5076242;28;19962;-67
2023/04/26 12:26:59;;;;;;;;;;;18.80;99.90;;;;;;5077221;28;19916;-68
2023/04/26 12:29:27;;;;;;;;;;;18.80;99.90;;;;;;5074834;28;19908;-66
2023/04/26 12:31:54;;;;;;;;;;;18.70;99.90;;;;;;5075048;28;19961;-68
2023/04/26 12:34:20;;;;;;;;;;;18.60;99.90;;;;;;5077455;28;19912;-68
2023/04/26 12:36:47;;;;;;;;;;;18.60;99.90;;;;;;5075862;28;19908;-70
2023/04/26 12:39:14;;;;;;;;;;;18.40;99.90;;;;;;5077403;28;19913;-68
2023/04/26 12:41:41;;;;;;;;;;;18.50;99.90;;;;;;5077416;28;20282;-68
2023/04/26 12:44:08;;;;;;;;;;;18.50;99.90;;;;;;5075407;28;20193;-67
2023/04/26 12:46:35;;;;;;;;;;;18.50;99.90;;;;;;5077142;28;19959;-67
2023/04/26 12:49:02;;;;;;;;;;;18.50;99.90;;;;;;5075783;28;19961;-70
2023/04/26 12:51:30;;;;;;;;;;;18.50;99.90;;;;;;5077951;28;19935;-70
2023/04/26 12:53:57;;;;;;;;;;;18.40;99.90;;;;;;5075636;28;19998;-68
2023/04/26 12:56:24;;;;;;;;;;;18.40;99.90;;;;;;5076827;28;20318;-68
2023/04/26 12:58:51;;;;;;;;;;;18.40;99.90;;;;;;5074943;28;20510;-70
2023/04/26 13:01:17;;;;;;;;;;;18.50;99.90;;;;;;5077377;28;19912;-68
2023/04/26 13:03:44;;;;;;;;;;;18.50;99.90;;;;;;5076881;28;19912;-68
2023/04/26 13:06:11;;;;;;;;;;;18.50;99.90;;;;;;5074789;28;20080;-68
2023/04/26 13:08:38;;;;;;;;;;;18.50;99.90;;;;;;5077006;28;19912;-67
2023/04/26 13:11:05;;;;;;;;;;;18.60;99.90;;;;;;5075183;28;19962;-70
2023/04/26 13:13:31;;;;;;;;;;;18.70;99.90;;;;;;5078295;28;19912;-72
2023/04/26 13:15:58;;;;;;;;;;;18.70;99.90;;;;;;5075247;28;19954;-68
2023/04/26 13:18:25;;;;;;;;;;;18.70;99.90;;;;;;5077158;28;19978;-69
2023/04/26 13:20:51;;;;;;;;;;;18.60;99.90;;;;;;5075813;28;20351;-71
2023/04/26 13:23:18;;;;;;;;;;;18.60;99.90;;;;;;5076175;28;19966;-71
2023/04/26 13:25:45;;;;;;;;;;;18.60;99.90;;;;;;5076922;28;19917;-69
2023/04/26 13:28:12;;;;;;;;;;;18.60;99.90;;;;;;5073764;28;19904;-69
2023/04/26 13:30:39;;;;;;;;;;;18.50;99.90;;;;;;5077313;28;19908;-69
2023/04/26 13:33:06;;;;;;;;;;;18.50;99.90;;;;;;5073982;28;19916;-68
2023/04/26 13:35:32;;;;;;;;;;;18.30;99.90;;;;;;5077069;28;20342;-68
2023/04/26 13:37:59;;;;;;;;;;;18.30;99.90;;;;;;5073992;28;19908;-69
2023/04/26 13:40:25;;;;;;;;;;;18.20;99.90;;;;;;5076762;28;19934;-69
2023/04/26 13:42:52;;;;;;;;;;;18.10;99.90;;;;;;5076533;28;19916;-69
2023/04/26 13:45:19;;;;;;;;;;;18.20;99.90;;;;;;5075758;28;20427;-68
2023/04/26 13:47:45;;;;;;;;;;;18.10;99.90;;;;;;5076131;28;19909;-68
2023/04/26 13:50:12;;;;;;;;;;;18.10;99.90;;;;;;5073722;28;19920;-69
2023/04/26 13:52:38;;;;;;;;;;;18.00;99.90;;;;;;5077271;28;19908;-69
2023/04/26 13:55:05;;;;;;;;;;;18.00;99.90;;;;;;5074027;28;19915;-68
2023/04/26 13:57:32;;;;;;;;;;;18.00;99.90;;;;;;5076340;28;19928;-70
2023/04/26 13:59:59;;;;;;;;;;;18.00;99.90;;;;;;5074314;28;19912;-71
2023/04/26 14:02:26;;;;;;;;;;;17.90;99.90;;;;;;5076051;28;20387;-69
2023/04/26 14:04:52;;;;;;;;;;;17.90;99.90;;;;;;5077386;28;20610;-68
2023/04/26 14:07:19;;;;;;;;;;;17.90;99.90;;;;;;5073975;28;19922;-68
2023/04/26 14:09:46;;;;;;;;;;;17.80;99.90;;;;;;5076652;28;19922;-69
2023/04/26 14:12:13;;;;;;;;;;;17.80;99.90;;;;;;5079081;28;19908;-67
2023/04/26 14:14:40;;;;;;;;;;;17.80;99.90;;;;;;5080471;28;19954;-68
2023/04/26 14:17:06;;;;;;;;;;;17.80;99.90;;;;;;5097612;28;19908;-67
2023/04/26 14:19:33;;;;;;;;;;;17.80;99.90;;;;;;5091914;28;20265;-70